Time;durP1;ratioP1;P1;durP2;ratioP2;P2;SDS_P1;SDS_P2;PMS_P1;PMS_P2;Temp;Humidity;BMP_temperature;BMP_pressure;BME280_temperature;BME280_humidity;BME280_pressure;Samples;Min_cycle;Max_cycle;Signal;HPM_P1;HPM_P2
2023/04/12 00:01:29;;;;;;;3.30;3.10;;;;;;;0.24;nan;96635.19;4966693;28;20236;-66
2023/04/12 00:03:57;;;;;;;3.63;3.43;;;;;;;0.26;nan;96641.94;4963166;28;20942;-65
2023/04/12 00:06:31;;;;;;;3.80;3.53;;;;;;;0.25;nan;96639.47;4971097;28;20217;-66
2023/04/12 00:08:59;;;;;;;3.57;3.27;;;;;;;0.26;nan;96641.94;4973587;28;20212;-65
2023/04/12 00:11:28;;;;;;;3.77;3.57;;;;;;;0.19;nan;96635.63;4943824;28;20229;-66
2023/04/12 00:13:56;;;;;;;3.80;3.50;;;;;;;0.16;nan;96627.22;4972585;28;20228;-66
2023/04/12 00:16:24;;;;;;;4.20;3.90;;;;;;;0.14;nan;96624.75;4972295;28;20208;-66
2023/04/12 00:18:53;;;;;;;6.40;3.47;;;;;;;0.14;nan;96619.53;4954385;28;20205;-66
2023/04/12 00:21:22;;;;;;;3.57;3.27;;;;;;;0.21;nan;96618.06;4973306;28;20233;-67
2023/04/12 00:23:50;;;;;;;4.00;3.70;;;;;;;0.26;nan;96613.28;4973977;28;21084;-67
2023/04/12 00:26:18;;;;;;;4.20;3.80;;;;;;;0.27;nan;96614.09;4940618;28;20221;-66
2023/04/12 00:28:47;;;;;;;4.30;4.00;;;;;;;0.33;nan;96610.94;4973801;28;20971;-66
2023/04/12 00:31:14;;;;;;;4.60;4.30;;;;;;;0.15;nan;96605.53;4975896;28;20201;-66
2023/04/12 00:33:42;;;;;;;4.40;4.03;;;;;;;0.30;nan;96605.19;4952813;28;20214;-65
2023/04/12 00:36:10;;;;;;;4.20;3.87;;;;;;;0.34;nan;96604.78;4981447;28;20220;-66
2023/04/12 00:38:38;;;;;;;4.87;4.40;;;;;;;0.38;nan;96605.34;4970288;28;20864;-66
2023/04/12 00:41:06;;;;;;;4.43;4.13;;;;;;;0.40;nan;96585.19;4948073;28;20278;-65
2023/04/12 00:43:34;;;;;;;4.10;3.80;;;;;;;0.32;nan;96579.81;4977764;28;20197;-67
2023/04/12 00:46:03;;;;;;;4.63;4.27;;;;;;;0.42;nan;96597.13;4981558;28;20196;-65
2023/04/12 00:48:31;;;;;;;4.47;3.70;;;;;;;0.40;nan;96580.81;4955197;28;20209;-66
2023/04/12 00:51:00;;;;;;;4.27;3.97;;;;;;;0.40;nan;96575.59;4976982;28;20200;-65
2023/04/12 00:53:28;;;;;;;7.70;4.13;;;;;;;0.42;nan;96575.44;4970994;28;20251;-65
2023/04/12 00:55:56;;;;;;;4.70;3.73;;;;;;;0.43;nan;96569.25;4915681;28;20225;-65
2023/04/12 00:58:24;;;;;;;3.90;3.60;;;;;;;0.42;nan;96565.84;4974633;28;20225;-66
2023/04/12 01:00:53;;;;;;;4.10;3.80;;;;;;;0.40;nan;96565.16;4975895;28;20240;-66
2023/04/12 01:03:23;;;;;;;4.00;3.70;;;;;;;0.35;nan;96569.13;4967158;28;20703;-68
2023/04/12 01:06:00;;;;;;;4.10;3.80;;;;;;;0.37;nan;96565.41;4968672;28;20824;-65
2023/04/12 01:08:34;;;;;;;4.50;3.50;;;;;;;0.37;nan;96560.19;4967597;28;20200;-66
2023/04/12 01:11:06;;;;;;;3.70;3.40;;;;;;;0.36;nan;96557.75;4938017;28;20311;-66
2023/04/12 01:13:36;;;;;;;4.33;4.03;;;;;;;0.36;nan;96552.53;4980143;28;20230;-66
2023/04/12 01:16:07;;;;;;;4.60;4.10;;;;;;;0.35;nan;96550.88;4977714;28;20201;-66
2023/04/12 01:18:41;;;;;;;7.30;4.37;;;;;;;0.28;nan;96551.44;4979856;28;20322;-66
2023/04/12 01:21:12;;;;;;;4.30;4.00;;;;;;;0.25;nan;96551.69;4956357;28;20237;-66
2023/04/12 01:23:53;;;;;;;3.97;3.57;;;;;;;0.23;nan;96548.41;4973502;28;20216;-66
2023/04/12 01:26:34;;;;;;;5.73;3.83;;;;;;;0.16;nan;96529.03;4960909;28;20280;-66
2023/04/12 01:29:08;;;;;;;3.80;3.40;;;;;;;0.25;nan;96536.06;4983251;28;20464;-66
2023/04/12 01:31:37;;;;;;;4.43;4.03;;;;;;;0.31;nan;96529.47;4972299;28;20232;-66
2023/04/12 01:34:05;;;;;;;3.97;3.67;;;;;;;0.26;nan;96529.06;4979537;28;20220;-66
2023/04/12 01:36:33;;;;;;;4.93;4.53;;;;;;;0.23;nan;96527.56;4949977;28;20294;-65
2023/04/12 01:39:03;;;;;;;5.07;4.57;;;;;;;0.19;nan;96504.50;4973018;28;20283;-65
2023/04/12 01:41:32;;;;;;;4.37;4.00;;;;;;;0.06;nan;96494.34;4940066;28;20228;-67
2023/04/12 01:44:00;;;;;;;4.33;4.03;;;;;;;0.19;nan;96512.31;4974609;28;20200;-66
2023/04/12 01:46:31;;;;;;;5.47;4.50;;;;;;;0.13;nan;96517.13;4969840;28;20327;-66
2023/04/12 01:48:58;;;;;;;3.90;3.60;;;;;;;0.16;nan;96508.19;4976423;28;20204;-67
2023/04/12 01:51:35;;;;;;;4.27;3.90;;;;;;;0.21;nan;96513.84;4949698;28;20228;-66
2023/04/12 01:54:09;;;;;;;4.40;4.00;;;;;;;0.25;nan;96509.16;4980480;28;20211;-67
2023/04/12 01:56:40;;;;;;;4.87;4.47;;;;;;;0.26;nan;96501.22;4952899;28;20224;-65
2023/04/12 01:59:09;;;;;;;6.37;4.60;;;;;;;0.41;nan;96504.25;4940356;28;20216;-66
2023/04/12 02:01:38;;;;;;;4.33;3.93;;;;;;;0.39;nan;96495.75;4970216;28;20963;-65
2023/04/12 02:04:06;;;;;;;5.03;4.63;;;;;;;0.32;nan;96493.81;4977906;28;20946;-66
2023/04/12 02:06:34;;;;;;;5.90;4.03;;;;;;;0.36;nan;96489.97;4950372;28;20214;-67
2023/04/12 02:09:04;;;;;;;6.10;4.30;;;;;;;0.38;nan;96493.28;4979320;28;20211;-66
2023/04/12 02:11:32;;;;;;;4.37;4.07;;;;;;;0.39;nan;96489.72;4973628;28;20228;-65
2023/04/12 02:14:00;;;;;;;5.20;4.67;;;;;;;0.37;nan;96494.22;4939276;28;20217;-66
2023/04/12 02:16:28;;;;;;;4.10;3.70;;;;;;;0.39;nan;96485.34;4972682;28;20205;-67
2023/04/12 02:18:58;;;;;;;4.57;4.27;;;;;;;0.33;nan;96482.44;4976867;28;20212;-65
2023/04/12 02:21:26;;;;;;;4.80;4.37;;;;;;;0.38;nan;96483.69;4980045;28;21057;-67
2023/04/12 02:23:54;;;;;;;5.07;4.67;;;;;;;0.41;nan;96488.63;4950901;28;20283;-68
2023/04/12 02:26:22;;;;;;;4.10;3.90;;;;;;;0.38;nan;96480.25;4978232;28;20382;-66
2023/04/12 02:28:51;;;;;;;4.93;4.17;;;;;;;0.40;nan;96476.56;4936793;28;20225;-66
2023/04/12 02:31:19;;;;;;;4.20;4.00;;;;;;;0.38;nan;96469.81;4977432;28;20275;-66
2023/04/12 02:33:47;;;;;;;4.30;4.00;;;;;;;0.39;nan;96461.03;4975074;28;20206;-66
2023/04/12 02:36:17;;;;;;;4.77;4.20;;;;;;;0.39;nan;96463.63;4975452;28;20209;-66
2023/04/12 02:38:44;;;;;;;4.63;4.23;;;;;;;0.34;nan;96458.84;4949850;28;20366;-65
2023/04/12 02:41:17;;;;;;;4.67;4.30;;;;;;;0.37;nan;96452.53;4977795;28;20202;-66
2023/04/12 02:43:45;;;;;;;5.17;4.77;;;;;;;0.34;nan;96445.81;4972076;28;20285;-66
2023/04/12 02:46:16;;;;;;;4.67;4.37;;;;;;;0.35;nan;96444.84;4935555;28;20271;-66
2023/04/12 02:48:44;;;;;;;4.53;4.23;;;;;;;0.32;nan;96439.09;4972515;28;20204;-66
2023/04/12 02:51:12;;;;;;;4.70;4.40;;;;;;;0.34;nan;96445.81;4973692;28;20217;-65
2023/04/12 02:53:41;;;;;;;4.67;4.37;;;;;;;0.36;nan;96454.31;4949672;28;20741;-66
2023/04/12 02:56:09;;;;;;;4.13;3.93;;;;;;;0.38;nan;96446.34;4973618;28;20208;-66
2023/04/12 02:58:37;;;;;;;4.57;4.23;;;;;;;0.42;nan;96437.31;4968699;28;20213;-66
2023/04/12 03:01:06;;;;;;;4.30;4.00;;;;;;;0.45;nan;96431.81;4916586;28;20311;-66
2023/04/12 03:03:35;;;;;;;4.50;4.10;;;;;;;0.45;nan;96434.41;4972285;28;20263;-68
2023/04/12 03:06:03;;;;;;;4.97;4.63;;;;;;;0.43;nan;96438.94;4973519;28;20213;-67
2023/04/12 03:08:31;;;;;;;5.87;5.33;;;;;;;0.34;nan;96413.72;4946914;28;20216;-66
2023/04/12 03:11:00;;;;;;;5.20;4.80;;;;;;;0.46;nan;96428.25;4973196;28;20209;-65
2023/04/12 03:13:28;;;;;;;4.40;4.03;;;;;;;0.45;nan;96426.59;4946357;28;20228;-65
2023/04/12 03:15:57;;;;;;;4.07;3.87;;;;;;;0.51;nan;96428.63;4933188;28;20282;-66
2023/04/12 03:18:25;;;;;;;5.37;4.87;;;;;;;0.54;nan;96422.34;4973617;28;20508;-65
2023/04/12 03:20:53;;;;;;;5.20;4.83;;;;;;;0.60;nan;96415.75;4973734;28;20227;-65
2023/04/12 03:23:22;;;;;;;4.70;4.40;;;;;;;0.53;nan;96412.88;4970997;28;20238;-66
2023/04/12 03:25:50;;;;;;;4.77;4.37;;;;;;;0.50;nan;96418.38;4950813;28;20216;-66
2023/04/12 03:28:20;;;;;;;4.80;4.50;;;;;;;0.57;nan;96422.06;4947928;28;20217;-65
2023/04/12 03:30:48;;;;;;;5.13;4.72;;;;;;;0.59;nan;96419.31;4935393;28;20470;-64
2023/04/12 03:33:16;;;;;;;4.97;4.67;;;;;;;0.64;nan;96417.13;4955488;28;20235;-65
2023/04/12 03:35:45;;;;;;;4.80;4.40;;;;;;;0.66;nan;96408.16;4973982;28;20200;-65
2023/04/12 03:38:14;;;;;;;4.50;4.20;;;;;;;0.71;nan;96412.97;4976985;28;20197;-65
2023/04/12 03:40:45;;;;;;;5.30;4.80;;;;;;;0.77;nan;96414.22;4949273;28;20205;-65
2023/04/12 03:43:14;;;;;;;4.93;4.53;;;;;;;0.80;nan;96422.56;4975441;28;20232;-65
2023/04/12 03:45:45;;;;;;;4.67;4.10;;;;;;;0.77;nan;96411.59;4928237;28;20874;-66
2023/04/12 03:48:15;;;;;;;5.23;4.83;;;;;;;0.81;nan;96421.59;4977709;28;20971;-65
2023/04/12 03:50:45;;;;;;;4.10;3.90;;;;;;;0.88;nan;96416.63;4949823;28;20209;-64
2023/04/12 03:53:15;;;;;;;4.40;4.20;;;;;;;0.95;nan;96396.84;4975034;28;20217;-64
2023/04/12 03:55:44;;;;;;;6.40;5.27;;;;;;;0.99;nan;96397.38;4949612;28;20465;-66
2023/04/12 03:58:15;;;;;;;4.37;4.07;;;;;;;0.99;nan;96389.56;4975252;28;20833;-66
2023/04/12 04:00:46;;;;;;;4.53;4.13;;;;;;;1.02;nan;96394.50;4933131;28;20221;-67
2023/04/12 04:03:15;;;;;;;4.03;3.80;;;;;;;1.07;nan;96389.66;4981789;28;20310;-64
2023/04/12 04:05:44;;;;;;;4.57;4.17;;;;;;;1.11;nan;96391.00;4952335;28;20216;-68
2023/04/12 04:08:14;;;;;;;4.97;4.57;;;;;;;1.18;nan;96406.91;4969976;28;20288;-64
2023/04/12 04:10:43;;;;;;;5.90;5.40;;;;;;;1.23;nan;96409.91;4949945;28;20954;-64
2023/04/12 04:13:13;;;;;;;6.10;5.53;;;;;;;1.26;nan;96391.34;4983212;28;20327;-58
2023/04/12 04:15:42;;;;;;;4.97;4.63;;;;;;;1.28;nan;96399.88;4978616;28;20206;-61
2023/04/12 04:18:12;;;;;;;5.50;5.13;;;;;;;1.32;nan;96412.63;4944509;28;20217;-60
2023/04/12 04:20:42;;;;;;;5.17;4.80;;;;;;;1.34;nan;96411.53;4957921;28;20244;-65
2023/04/12 04:23:11;;;;;;;6.87;4.77;;;;;;;1.32;nan;96400.38;4975373;28;20664;-65
2023/04/12 04:25:41;;;;;;;5.38;4.97;;;;;;;1.29;nan;96400.66;4944139;28;21183;-65
2023/04/12 04:28:10;;;;;;;5.17;4.67;;;;;;;1.26;nan;96398.34;4978658;28;20693;-66
2023/04/12 04:30:39;;;;;;;5.53;5.03;;;;;;;1.24;nan;96400.28;4956995;28;20228;-67
2023/04/12 04:33:09;;;;;;;4.87;4.50;;;;;;;1.23;nan;96391.66;4937538;28;20419;-64
2023/04/12 04:35:41;;;;;;;5.30;4.82;;;;;;;1.28;nan;96383.38;4955468;28;20486;-65
2023/04/12 04:38:11;;;;;;;4.60;4.30;;;;;;;1.35;nan;96386.22;4977209;28;20202;-66
2023/04/12 04:40:40;;;;;;;4.77;4.40;;;;;;;1.42;nan;96385.50;4978848;28;20201;-66
2023/04/12 04:43:12;;;;;;;4.88;4.40;;;;;;;1.54;nan;96374.84;4954495;28;21739;-66
2023/04/12 04:45:42;;;;;;;4.70;4.30;;;;;;;1.65;nan;96369.41;4979260;28;20548;-65
2023/04/12 04:48:11;;;;;;;4.97;4.40;;;;;;;1.73;nan;96366.91;4915928;28;20477;-66
2023/04/12 04:50:42;;;;;;;7.27;5.03;;;;;;;1.85;nan;96377.13;4955100;28;20458;-65
2023/04/12 04:53:12;;;;;;;5.40;5.00;;;;;;;1.97;nan;96375.91;4974323;28;20241;-66
2023/04/12 04:55:44;;;;;;;5.10;4.80;;;;;;;2.11;nan;96371.97;4973653;28;20205;-64
2023/04/12 04:58:13;;;;;;;5.73;5.30;;;;;;;2.17;nan;96375.78;4953877;28;20233;-67
2023/04/12 05:00:44;;;;;;;5.30;4.70;;;;;;;2.18;nan;96377.41;4978398;28;20212;-66
2023/04/12 05:03:14;;;;;;;5.70;5.20;;;;;;;2.21;nan;96365.81;4934553;28;20771;-66
2023/04/12 05:05:49;;;;;;;6.83;5.60;;;;;;;2.20;nan;96369.41;4943839;28;20213;-66
2023/04/12 05:08:19;;;;;;;6.38;5.75;;;;;;;2.22;nan;96357.84;4972429;28;20450;-66
2023/04/12 05:10:51;;;;;;;9.87;7.63;;;;;;;2.25;nan;96354.09;4980451;28;20228;-64
2023/04/12 05:13:21;;;;;;;6.40;5.73;;;;;;;2.30;nan;96357.09;4956048;28;20229;-65
2023/04/12 05:15:50;;;;;;;6.67;6.07;;;;;;;2.34;nan;96352.34;4949939;28;20275;-68
2023/04/12 05:18:20;;;;;;;6.63;6.13;;;;;;;2.43;nan;96357.50;4924855;28;20220;-66
2023/04/12 05:20:52;;;;;;;6.80;6.13;;;;;;;2.47;nan;96363.25;4976528;28;20208;-67
2023/04/12 05:23:21;;;;;;;6.27;5.67;;;;;;;2.46;nan;96344.13;4952462;28;20292;-66
2023/04/12 05:25:52;;;;;;;6.87;6.17;;;;;;;2.57;nan;96348.28;4978852;28;20205;-66
2023/04/12 05:28:22;;;;;;;7.30;6.60;;;;;;;2.63;nan;96348.63;4954156;28;20212;-67
2023/04/12 05:30:51;;;;;;;7.70;6.90;;;;;;;2.78;nan;96356.72;4972378;28;20212;-64
2023/04/12 05:33:21;;;;;;;16.40;8.13;;;;;;;2.79;nan;96351.31;4943008;28;20229;-66
2023/04/12 05:35:52;;;;;;;10.43;6.70;;;;;;;2.90;nan;96350.25;4974309;28;20216;-66
2023/04/12 05:38:22;;;;;;;8.17;7.40;;;;;;;2.99;nan;96353.72;4952283;28;20217;-66
2023/04/12 05:40:52;;;;;;;8.00;7.20;;;;;;;3.06;nan;96338.22;4977679;28;20205;-66
2023/04/12 05:43:20;;;;;;;9.10;7.33;;;;;;;3.10;nan;96334.31;4955116;28;20252;-66
2023/04/12 05:45:50;;;;;;;7.33;6.73;;;;;;;3.21;nan;96326.16;4973077;28;20294;-66
2023/04/12 05:48:18;;;;;;;8.17;7.30;;;;;;;3.27;nan;96320.28;4972857;28;20279;-67
2023/04/12 05:50:51;;;;;;;8.20;7.10;;;;;;;3.33;nan;96318.84;4936061;28;20228;-66
2023/04/12 05:53:19;;;;;;;8.00;7.27;;;;;;;3.41;nan;96321.47;4951605;28;20703;-65
2023/04/12 05:55:47;;;;;;;8.30;6.90;;;;;;;3.47;nan;96312.97;4980996;28;20209;-65
2023/04/12 05:58:15;;;;;;;8.33;7.07;;;;;;;3.57;nan;96306.75;4933706;28;1122548;-66
2023/04/12 06:00:44;;;;;;;7.93;7.17;;;;;;;3.62;nan;96310.53;4957410;28;20738;-66
2023/04/12 06:03:12;;;;;;;7.70;6.90;;;;;;;3.71;nan;96298.28;4979925;28;20240;-64
2023/04/12 06:05:39;;;;;;;7.57;6.73;;;;;;;3.83;nan;96292.72;4937124;28;20228;-66
2023/04/12 06:08:09;;;;;;;7.97;7.27;;;;;;;4.00;nan;96298.78;4974104;28;20202;-67
2023/04/12 06:10:37;;;;;;;7.20;6.50;;;;;;;4.05;nan;96288.63;4961937;28;20213;-67
2023/04/12 06:13:04;;;;;;;7.87;7.17;;;;;;;4.21;nan;96295.66;4980658;28;20225;-66
2023/04/12 06:15:32;;;;;;;7.77;7.17;;;;;;;4.35;nan;96299.41;4952663;28;20224;-65
2023/04/12 06:18:00;;;;;;;6.93;6.50;;;;;;;4.41;nan;96296.09;4973659;28;20214;-66
2023/04/12 06:20:27;;;;;;;7.57;6.97;;;;;;;4.45;nan;96291.34;4931508;28;20220;-66
2023/04/12 06:22:55;;;;;;;7.10;6.40;;;;;;;4.41;nan;96285.63;4980233;28;20232;-65
2023/04/12 06:25:24;;;;;;;7.20;6.53;;;;;;;4.48;nan;96270.84;4935071;28;20229;-66
2023/04/12 06:27:52;;;;;;;8.07;7.40;;;;;;;4.54;nan;96260.66;4975496;28;21126;-65
2023/04/12 06:30:20;;;;;;;7.07;6.47;;;;;;;4.63;nan;96283.28;4973442;28;20228;-65
2023/04/12 06:32:48;;;;;;;7.07;6.33;;;;;;;4.64;nan;96277.03;4949067;28;20879;-65
2023/04/12 06:35:16;;;;;;;9.87;7.00;;;;;;;4.54;nan;96268.53;4976645;28;20212;-67
2023/04/12 06:37:44;;;;;;;7.30;6.73;;;;;;;4.61;nan;96259.81;4934145;28;20216;-65
2023/04/12 06:40:12;;;;;;;8.07;7.27;;;;;;;4.72;nan;96250.78;4953018;28;20744;-67
2023/04/12 06:42:41;;;;;;;8.33;7.37;;;;;;;4.83;nan;96240.88;4974875;28;20230;-65
2023/04/12 06:45:10;;;;;;;7.63;6.83;;;;;;;4.95;nan;96242.16;4953440;28;20261;-66
2023/04/12 06:47:37;;;;;;;7.70;7.10;;;;;;;5.11;nan;96243.84;4944753;28;20206;-66
2023/04/12 06:50:06;;;;;;;7.30;6.40;;;;;;;5.10;nan;96233.53;4947722;28;20219;-68
2023/04/12 06:52:34;;;;;;;8.07;6.30;;;;;;;5.04;nan;96232.41;4938343;28;20298;-65
2023/04/12 06:55:02;;;;;;;9.30;6.23;;;;;;;5.10;nan;96220.41;4950510;28;21197;-65
2023/04/12 06:57:29;;;;;;;6.90;6.07;;;;;;;5.06;nan;96231.25;4972042;28;20204;-66
2023/04/12 06:59:58;;;;;;;5.77;5.37;;;;;;;5.15;nan;96233.84;4967096;28;20491;-66
2023/04/12 07:02:26;;;;;;;6.07;5.67;;;;;;;5.06;nan;96236.50;4949876;28;20240;-65
2023/04/12 07:04:54;;;;;;;6.00;5.40;;;;;;;4.86;nan;96225.63;4950652;28;20225;-66
2023/04/12 07:07:22;;;;;;;7.63;5.70;;;;;;;4.87;nan;96227.25;4976341;28;20460;-66
2023/04/12 07:09:51;;;;;;;7.37;5.80;;;;;;;4.95;nan;96228.19;4920569;28;20937;-67
2023/04/12 07:12:19;;;;;;;6.90;6.20;;;;;;;5.02;nan;96231.75;4976578;28;20460;-65
2023/04/12 07:14:46;;;;;;;6.73;5.37;;;;;;;4.93;nan;96223.94;4973741;28;20648;-66
2023/04/12 07:17:15;;;;;;;5.93;5.27;;;;;;;4.89;nan;96229.69;4976300;28;20213;-64
2023/04/12 07:19:43;;;;;;;5.53;5.13;;;;;;;5.00;nan;96220.63;4953123;28;20238;-65
2023/04/12 07:22:11;;;;;;;6.97;5.60;;;;;;;5.21;nan;96212.97;4952689;28;20289;-65
2023/04/12 07:24:40;;;;;;;5.97;5.47;;;;;;;5.09;nan;96214.31;4943201;28;20285;-67
2023/04/12 07:27:09;;;;;;;5.47;4.97;;;;;;;5.12;nan;96214.00;4953831;28;20936;-66
2023/04/12 07:29:37;;;;;;;4.97;4.50;;;;;;;5.07;nan;96205.81;4976965;28;20216;-66
2023/04/12 07:32:05;;;;;;;7.00;6.30;;;;;;;5.11;nan;96199.22;4970391;28;20224;-66
2023/04/12 07:34:35;;;;;;;5.80;5.07;;;;;;;5.16;nan;96191.66;4955827;28;20217;-65
2023/04/12 07:37:03;;;;;;;5.63;5.23;;;;;;;5.17;nan;96190.66;4944570;28;20840;-65
2023/04/12 07:39:33;;;;;;;5.90;5.40;;;;;;;5.13;nan;96183.28;4972864;28;20280;-66
2023/04/12 07:42:02;;;;;;;6.00;5.47;;;;;;;5.28;nan;96180.75;4893772;28;20290;-65
2023/04/12 07:44:30;;;;;;;5.90;5.37;;;;;;;5.44;nan;96180.59;4971585;28;20259;-65
2023/04/12 07:46:58;;;;;;;6.33;5.33;;;;;;;5.50;nan;96179.09;4952464;28;20705;-66
2023/04/12 07:49:28;;;;;;;5.80;5.30;;;;;;;5.74;nan;96178.06;4938021;28;21655;-66
2023/04/12 07:51:58;;;;;;;6.20;5.70;;;;;;;5.82;nan;96165.84;4947438;28;20245;-64
2023/04/12 07:54:30;;;;;;;6.07;5.57;;;;;;;5.94;nan;96167.06;4973275;28;20800;-66
2023/04/12 07:57:00;;;;;;;5.17;4.70;;;;;;;6.01;nan;96165.38;4915761;28;20220;-65
2023/04/12 07:59:29;;;;;;;5.40;4.87;;;;;;;5.96;nan;96161.59;4973680;28;20216;-65
2023/04/12 08:02:01;;;;;;;7.43;5.13;;;;;;;6.16;nan;96161.91;4952526;28;20323;-65
2023/04/12 08:04:31;;;;;;;5.60;5.10;;;;;;;6.51;nan;96149.84;4949895;28;20267;-67
2023/04/12 08:07:01;;;;;;;5.45;5.05;;;;;;;6.60;nan;96155.78;4970695;28;21425;-68
2023/04/12 08:09:29;;;;;;;4.87;4.57;;;;;;;6.82;nan;96155.84;4935364;28;20899;-66
2023/04/12 08:11:57;;;;;;;4.53;4.13;;;;;;;6.98;nan;96152.19;4937310;28;20236;-65
2023/04/12 08:14:25;;;;;;;4.33;3.97;;;;;;;7.06;nan;96151.25;4953661;28;20924;-66
2023/04/12 08:16:53;;;;;;;5.00;4.60;;;;;;;7.22;nan;96140.47;4955130;28;20201;-66
2023/04/12 08:19:22;;;;;;;3.93;3.73;;;;;;;7.27;nan;96125.91;4949610;28;20201;-67
2023/04/12 08:21:51;;;;;;;4.17;3.87;;;;;;;7.23;nan;96143.94;4974195;28;20278;-67
2023/04/12 08:24:21;;;;;;;4.53;3.83;;;;;;;6.91;nan;96143.41;4968746;28;20243;-67
2023/04/12 08:26:50;;;;;;;4.13;3.93;;;;;;;7.02;nan;96135.00;4940795;28;20914;-67
2023/04/12 08:29:19;;;;;;;3.93;3.70;;;;;;;7.16;nan;96137.75;4955635;28;20209;-67
2023/04/12 08:31:47;;;;;;;3.90;3.70;;;;;;;6.89;nan;96127.78;4973294;28;20236;-65
2023/04/12 08:34:15;;;;;;;4.23;3.93;;;;;;;6.75;nan;96118.13;4929825;28;20220;-66
2023/04/12 08:36:43;;;;;;;4.90;4.50;;;;;;;6.80;nan;96126.28;4971668;28;20224;-66
2023/04/12 08:39:11;;;;;;;4.50;3.90;;;;;;;6.68;nan;96122.50;4964564;28;20213;-67
2023/04/12 08:41:40;;;;;;;5.25;4.75;;;;;;;6.85;nan;96123.88;4974281;28;20443;-66
2023/04/12 08:44:08;;;;;;;3.90;3.70;;;;;;;6.70;nan;96126.56;4918652;28;20217;-67
2023/04/12 08:46:36;;;;;;;4.95;4.55;;;;;;;6.93;nan;96109.81;4967500;28;20712;-66
2023/04/12 08:49:03;;;;;;;6.47;4.17;;;;;;;7.14;nan;96110.78;4949688;28;20210;-67
2023/04/12 08:51:32;;;;;;;5.23;4.40;;;;;;;7.22;nan;96103.59;4945127;28;20233;-67
2023/04/12 08:54:00;;;;;;;4.90;3.70;;;;;;;7.23;nan;96102.56;4976811;28;20205;-67
2023/04/12 08:56:28;;;;;;;3.90;3.67;;;;;;;7.28;nan;96104.66;4976384;28;20204;-68
2023/04/12 08:58:57;;;;;;;4.50;4.10;;;;;;;7.28;nan;96094.13;4923937;28;20703;-67
2023/04/12 09:01:25;;;;;;;5.43;4.30;;;;;;;7.12;nan;96083.81;4975767;28;20278;-67
2023/04/12 09:03:53;;;;;;;5.10;4.63;;;;;;;7.05;nan;96086.41;4959163;28;20243;-67
2023/04/12 09:06:21;;;;;;;4.47;4.03;;;;;;;7.06;nan;96096.75;4951275;28;20998;-67
2023/04/12 09:08:53;;;;;;;3.70;3.50;;;;;;;6.80;nan;96077.03;4980647;28;20208;-67
2023/04/12 09:11:24;;;;;;;4.73;4.33;;;;;;;6.92;nan;96089.72;4975686;28;20209;-67
2023/04/12 09:13:53;;;;;;;4.40;4.10;;;;;;;7.09;nan;96085.84;4938070;28;20218;-66
2023/04/12 09:16:36;;;;;;;4.40;4.00;;;;;;;7.21;nan;96080.06;4974020;28;20228;-67
2023/04/12 09:19:04;;;;;;;4.33;3.93;;;;;;;7.08;nan;96083.41;4977633;28;20209;-67
2023/04/12 09:21:33;;;;;;;4.70;4.30;;;;;;;7.00;nan;96067.72;4933049;28;20233;-66
2023/04/12 09:24:08;;;;;;;5.83;5.30;;;;;;;7.07;nan;96058.06;4956665;28;20275;-68
2023/04/12 09:26:39;;;;;;;5.70;4.57;;;;;;;7.18;nan;96059.34;4973303;28;20249;-67
2023/04/12 09:29:21;;;;;;;4.87;4.40;;;;;;;7.22;nan;96060.63;4935695;28;20282;-67
2023/04/12 09:31:57;;;;;;;5.00;4.55;;;;;;;7.24;nan;96053.34;4978660;28;20451;-66
2023/04/12 09:34:24;;;;;;;5.73;4.73;;;;;;;7.13;nan;96040.69;4949665;28;20286;-66
2023/04/12 09:36:54;;;;;;;4.73;4.33;;;;;;;7.12;nan;96041.69;4955290;28;20591;-66
2023/04/12 09:39:30;;;;;;;4.67;4.27;;;;;;;7.19;nan;96024.94;4975400;28;20212;-67
2023/04/12 09:42:04;;;;;;;4.40;3.20;;;;;;;6.97;nan;96033.84;4980879;28;20231;-66
2023/04/12 09:44:33;;;;;;;4.70;4.30;;;;;;;7.04;nan;96026.84;4936635;28;21068;-66
2023/04/12 09:47:03;;;;;;;4.43;4.13;;;;;;;6.88;nan;96023.44;4980863;28;20224;-66
2023/04/12 09:49:38;;;;;;;5.03;4.53;;;;;;;6.86;nan;96014.94;4957540;28;20269;-66
2023/04/12 09:52:07;;;;;;;4.17;3.87;;;;;;;6.85;nan;96018.56;4956042;28;20235;-66
2023/04/12 09:54:38;;;;;;;4.10;3.70;;;;;;;7.02;nan;96013.84;4972372;28;20221;-66
2023/04/12 09:57:09;;;;;;;5.23;4.17;;;;;;;7.09;nan;96003.38;4976754;28;20239;-67
2023/04/12 09:59:39;;;;;;;5.17;4.73;;;;;;;7.03;nan;95994.41;4977271;28;20878;-65
2023/04/12 10:02:15;;;;;;;4.40;4.00;;;;;;;7.10;nan;95997.09;4935815;28;20231;-66
2023/04/12 10:04:44;;;;;;;5.77;4.13;;;;;;;7.13;nan;95990.63;4977408;28;20200;-66
2023/04/12 10:07:12;;;;;;;4.83;4.43;;;;;;;7.33;nan;95990.75;4927553;28;20295;-67
2023/04/12 10:09:42;;;;;;;5.00;4.60;;;;;;;7.21;nan;95969.44;4978328;28;20205;-66
2023/04/12 10:12:10;;;;;;;4.40;4.03;;;;;;;7.21;nan;95987.88;4979807;28;20220;-66
2023/04/12 10:14:38;;;;;;;5.18;4.43;;;;;;;7.13;nan;95972.19;4973806;28;21449;-66
2023/04/12 10:17:07;;;;;;;4.67;4.20;;;;;;;7.27;nan;95968.66;4934947;28;21098;-66
2023/04/12 10:19:36;;;;;;;4.15;3.85;;;;;;;7.02;nan;95965.66;4979548;28;20436;-66
2023/04/12 10:22:04;;;;;;;4.67;4.33;;;;;;;6.93;nan;95967.59;4962309;28;20790;-66
2023/04/12 10:24:32;;;;;;;4.27;3.97;;;;;;;6.89;nan;95961.09;4952816;28;20204;-67
2023/04/12 10:27:02;;;;;;;4.83;4.50;;;;;;;7.00;nan;95965.00;4978225;28;20236;-67
2023/04/12 10:29:32;;;;;;;4.47;4.17;;;;;;;7.22;nan;95948.16;4975334;28;20204;-66
2023/04/12 10:32:19;;;;;;;4.37;4.07;;;;;;;7.33;nan;95941.53;4955564;28;20853;-66
2023/04/12 10:34:52;;;;;;;5.07;4.57;;;;;;;7.50;nan;95938.56;4980235;28;20216;-67
2023/04/12 10:37:21;;;;;;;4.63;4.23;;;;;;;7.76;nan;95937.06;4958878;28;20205;-67
2023/04/12 10:39:52;;;;;;;4.60;4.20;;;;;;;7.93;nan;95934.91;4952429;28;20208;-68
2023/04/12 10:42:22;;;;;;;4.33;4.03;;;;;;;7.68;nan;95930.13;4978709;28;20224;-67
2023/04/12 10:44:51;;;;;;;3.97;3.67;;;;;;;7.65;nan;95919.97;4976083;28;20301;-67
2023/04/12 10:48:00;;;;;;;5.07;4.37;;;;;;;7.87;nan;95922.50;4938639;28;20276;-67
2023/04/12 10:50:29;;;;;;;4.90;4.50;;;;;;;7.89;nan;95925.75;4973663;28;20211;-67
2023/04/12 10:53:20;;;;;;;4.40;4.00;;;;;;;7.96;nan;95914.22;4955122;28;20295;-66
2023/04/12 10:55:48;;;;;;;5.57;4.50;;;;;;;8.40;nan;95912.06;4973549;28;20267;-67
2023/04/12 10:58:54;;;;;;;3.77;3.57;;;;;;;8.05;nan;95906.94;4973905;28;20232;-66
2023/04/12 11:01:22;;;;;;;3.90;3.70;;;;;;;7.84;nan;95904.44;4969261;28;20204;-66
2023/04/12 11:04:12;;;;;;;4.13;3.83;;;;;;;7.72;nan;95894.44;4940150;28;20220;-66
2023/04/12 11:06:49;;;;;;;4.50;3.77;;;;;;;7.97;nan;95881.56;4974416;28;20224;-66
2023/04/12 11:09:21;;;;;;;4.37;4.07;;;;;;;8.30;nan;95887.91;4943136;28;20211;-68
2023/04/12 11:11:49;;;;;;;4.20;3.90;;;;;;;8.23;nan;95877.31;4978297;28;20259;-66
2023/04/12 11:14:18;;;;;;;5.47;3.90;;;;;;;8.57;nan;95872.13;4972368;28;20352;-66
2023/04/12 11:17:22;;;;;;;4.27;4.00;;;;;;;8.71;nan;95874.75;4972603;28;20205;-66
2023/04/12 11:19:54;;;;;;;4.40;4.00;;;;;;;8.93;nan;95884.06;4937362;28;20216;-67
2023/04/12 11:22:23;;;;;;;3.73;3.53;;;;;;;8.60;nan;95882.28;4973664;28;20235;-66
2023/04/12 11:24:52;;;;;;;6.07;3.53;;;;;;;8.36;nan;95873.91;4951179;28;20209;-66
2023/04/12 11:27:20;;;;;;;4.07;3.70;;;;;;;8.54;nan;95875.97;4953396;28;20233;-66
2023/04/12 11:29:50;;;;;;;3.90;3.60;;;;;;;8.24;nan;95872.88;4977974;28;20205;-66
2023/04/12 11:32:18;;;;;;;4.07;3.47;;;;;;;8.16;nan;95867.81;4956601;28;20286;-66
2023/04/12 11:34:47;;;;;;;4.27;3.30;;;;;;;8.22;nan;95869.63;4976564;28;20220;-66
2023/04/12 11:37:18;;;;;;;4.07;3.77;;;;;;;8.57;nan;95866.84;4903512;28;20697;-67
2023/04/12 11:39:47;;;;;;;3.73;3.53;;;;;;;8.76;nan;95864.38;4954763;28;20263;-65
2023/04/12 11:42:16;;;;;;;4.90;4.50;;;;;;;9.19;nan;95860.44;4951416;28;20232;-66
2023/04/12 11:44:44;;;;;;;6.57;3.90;;;;;;;9.22;nan;95860.81;4975095;28;20223;-66
2023/04/12 11:47:23;;;;;;;3.73;3.43;;;;;;;9.44;nan;95847.34;4968847;28;21068;-66
2023/04/12 11:49:53;;;;;;;4.60;3.60;;;;;;;9.50;nan;95846.50;4981085;28;20782;-67
2023/04/12 11:52:27;;;;;;;3.57;3.30;;;;;;;9.23;nan;95838.66;4935592;28;20224;-66
2023/04/12 11:54:57;;;;;;;4.03;3.60;;;;;;;9.12;nan;95832.22;4951333;28;20291;-66
2023/04/12 11:57:27;;;;;;;3.90;3.60;;;;;;;9.15;nan;95832.81;4949984;28;20212;-66
2023/04/12 11:59:57;;;;;;;4.20;3.90;;;;;;;9.05;nan;95827.94;4976406;28;20209;-66
2023/04/12 12:02:25;;;;;;;4.60;4.17;;;;;;;8.91;nan;95827.16;4969044;28;20294;-66
2023/04/12 12:04:57;;;;;;;4.63;4.17;;;;;;;9.14;nan;95824.06;4970282;28;20209;-66
2023/04/12 12:07:26;;;;;;;4.17;3.80;;;;;;;9.07;nan;95829.34;4929324;28;20220;-66
2023/04/12 12:09:55;;;;;;;3.50;3.30;;;;;;;8.98;nan;95812.94;4930893;28;20213;-67
2023/04/12 12:12:23;;;;;;;4.03;3.80;;;;;;;9.21;nan;95814.28;4957945;28;20279;-66